createdAt,value
2018-03-26T00:01:10.765Z,74.74
2018-03-26T00:03:39.144Z,74.51
2018-03-26T00:06:07.558Z,74.44
2018-03-26T00:08:35.961Z,74.59
2018-03-26T00:11:04.324Z,74.30
2018-03-26T00:13:32.788Z,74.32
2018-03-26T00:16:01.152Z,74.75
2018-03-26T00:18:29.562Z,74.95
2018-03-26T00:20:57.956Z,75.41
2018-03-26T00:23:26.314Z,76.07
2018-03-26T00:25:54.709Z,76.00
2018-03-26T00:28:23.081Z,76.46
2018-03-26T00:30:51.490Z,76.67
2018-03-26T00:33:19.865Z,76.62
2018-03-26T00:35:48.269Z,76.84
2018-03-26T00:38:16.872Z,76.34
2018-03-26T00:40:45.224Z,77.15
2018-03-26T00:43:13.626Z,77.83
2018-03-26T00:45:42.010Z,77.62
2018-03-26T00:48:10.400Z,77.38
2018-03-26T00:50:38.781Z,77.82
2018-03-26T00:53:07.141Z,77.63
2018-03-26T00:55:35.568Z,78.12
2018-03-26T00:58:03.963Z,78.01
2018-03-26T01:00:32.315Z,78.55
2018-03-26T01:03:01.675Z,78.61
2018-03-26T01:05:30.118Z,79.50
2018-03-26T01:07:58.508Z,80.40
2018-03-26T01:10:26.864Z,79.46
2018-03-26T01:12:55.346Z,80.57
2018-03-26T01:15:23.724Z,80.11
2018-03-26T01:17:52.070Z,79.92
2018-03-26T01:20:20.464Z,79.97
2018-03-26T01:22:48.837Z,80.68
2018-03-26T01:25:17.272Z,81.49
2018-03-26T01:27:45.648Z,80.75
2018-03-26T01:30:14.073Z,80.28
2018-03-26T01:32:42.481Z,80.65
2018-03-26T01:35:10.846Z,80.17
2018-03-26T01:37:39.192Z,80.42
2018-03-26T01:40:07.626Z,82.32
2018-03-26T01:42:36.070Z,83.42
2018-03-26T01:45:04.545Z,83.65
2018-03-26T01:47:32.926Z,83.07
2018-03-26T01:50:01.333Z,82.75
2018-03-26T01:52:29.711Z,81.77
2018-03-26T01:54:58.189Z,81.71
2018-03-26T01:57:26.565Z,80.79
2018-03-26T01:59:54.978Z,80.45
2018-03-26T02:02:23.372Z,80.45
2018-03-26T02:04:51.782Z,80.55
2018-03-26T02:07:20.185Z,80.59
2018-03-26T02:09:48.590Z,80.67
2018-03-26T02:12:17.005Z,81.35
2018-03-26T02:14:45.496Z,81.11
2018-03-26T02:17:13.856Z,80.33
2018-03-26T02:19:42.426Z,80.98
2018-03-26T02:22:10.824Z,80.63
2018-03-26T02:24:39.228Z,80.82
2018-03-26T02:27:07.581Z,80.85
2018-03-26T02:29:35.993Z,81.12
2018-03-26T02:32:04.371Z,80.98
2018-03-26T02:34:32.887Z,80.86
2018-03-26T02:37:01.405Z,80.38
2018-03-26T02:39:29.797Z,80.75
2018-03-26T02:41:58.228Z,80.01
2018-03-26T02:44:26.657Z,80.06
2018-03-26T02:46:55.061Z,79.62
2018-03-26T02:49:23.466Z,80.21
2018-03-26T02:51:51.889Z,80.06
2018-03-26T02:54:20.280Z,80.49
2018-03-26T02:56:48.660Z,80.31
2018-03-26T02:59:17.064Z,80.34
2018-03-26T03:01:45.577Z,80.45
2018-03-26T03:04:14.094Z,80.04
2018-03-26T03:06:42.484Z,79.73
2018-03-26T03:09:10.837Z,79.66
2018-03-26T03:11:39.232Z,79.84
2018-03-26T03:14:07.637Z,80.19
2018-03-26T03:16:36.047Z,79.85
2018-03-26T03:19:04.475Z,80.37
2018-03-26T03:21:32.892Z,80.61
2018-03-26T03:24:01.243Z,80.20
2018-03-26T03:26:29.652Z,80.02
2018-03-26T03:28:58.063Z,79.96
2018-03-26T03:31:26.457Z,79.69
2018-03-26T03:33:54.828Z,79.57
2018-03-26T03:36:23.324Z,79.59
2018-03-26T03:38:51.750Z,78.93
2018-03-26T03:41:20.154Z,79.40
2018-03-26T03:43:48.535Z,78.89
2018-03-26T03:46:16.908Z,79.36
2018-03-26T03:48:45.312Z,78.85
2018-03-26T03:51:13.673Z,79.10
2018-03-26T03:53:42.055Z,79.31
2018-03-26T03:56:10.456Z,78.97
2018-03-26T03:58:38.851Z,79.12
2018-03-26T04:01:07.371Z,79.33
2018-03-26T04:03:35.756Z,79.68
2018-03-26T04:06:04.178Z,79.29
2018-03-26T04:08:32.561Z,79.66
2018-03-26T04:11:00.949Z,79.55
2018-03-26T04:13:29.348Z,79.47
2018-03-26T04:15:57.738Z,79.42
2018-03-26T04:18:26.150Z,79.77
2018-03-26T04:20:54.488Z,79.12
2018-03-26T04:23:23.384Z,78.72
2018-03-26T04:25:51.758Z,78.73
2018-03-26T04:28:20.163Z,78.61
2018-03-26T04:30:48.533Z,79.17
2018-03-26T04:33:16.956Z,78.92
2018-03-26T04:35:45.312Z,78.86
2018-03-26T04:38:13.717Z,78.37
2018-03-26T04:40:42.077Z,78.73
2018-03-26T04:43:10.620Z,79.14
2018-03-26T04:45:39.033Z,79.32
2018-03-26T04:48:07.550Z,78.49
2018-03-26T04:50:35.965Z,78.61
2018-03-26T04:53:04.322Z,78.00
2018-03-26T04:55:32.731Z,78.53
2018-03-26T04:58:01.156Z,78.70
2018-03-26T05:00:29.599Z,78.27
2018-03-26T05:02:58.001Z,78.54
2018-03-26T05:05:26.497Z,77.84
2018-03-26T05:07:56.975Z,78.42
2018-03-26T05:10:25.351Z,77.97
2018-03-26T05:12:53.833Z,78.13
2018-03-26T05:15:22.192Z,78.77
2018-03-26T05:17:50.565Z,77.93
2018-03-26T05:20:18.993Z,77.65
2018-03-26T05:22:47.422Z,77.23
2018-03-26T05:25:15.822Z,77.00
2018-03-26T05:27:44.187Z,76.77
2018-03-26T05:30:12.707Z,77.10
2018-03-26T05:32:41.078Z,76.83
2018-03-26T05:35:09.457Z,77.20
2018-03-26T05:37:37.860Z,76.45
2018-03-26T05:40:06.292Z,75.93
2018-03-26T05:42:34.905Z,76.14
2018-03-26T05:45:03.300Z,76.12
2018-03-26T05:47:31.700Z,75.10
2018-03-26T05:50:00.065Z,74.93
2018-03-26T05:52:28.464Z,75.43
2018-03-26T05:54:56.893Z,75.24
2018-03-26T05:57:25.276Z,73.83
2018-03-26T05:59:53.723Z,73.25
2018-03-26T06:02:22.148Z,72.52
2018-03-26T06:04:50.541Z,72.33
2018-03-26T06:07:18.994Z,71.44
2018-03-26T06:09:47.380Z,71.01
2018-03-26T06:12:15.854Z,69.57
2018-03-26T06:14:44.241Z,70.31
2018-03-26T06:17:13.335Z,69.61
2018-03-26T06:19:41.915Z,69.80
2018-03-26T06:22:10.351Z,67.95
2018-03-26T06:24:38.857Z,67.10
2018-03-26T06:27:07.296Z,66.20
2018-03-26T06:29:35.712Z,66.38
2018-03-26T06:32:04.204Z,66.30
2018-03-26T06:34:32.641Z,66.63
2018-03-26T06:37:03.573Z,67.06
2018-03-26T06:39:32.012Z,66.76
2018-03-26T06:42:00.426Z,67.34
2018-03-26T06:44:28.844Z,67.59
2018-03-26T06:46:57.237Z,66.77
2018-03-26T06:49:25.673Z,65.97
2018-03-26T06:51:54.133Z,65.90
2018-03-26T06:54:22.680Z,65.46
2018-03-26T06:56:51.120Z,64.71
2018-03-26T06:59:19.518Z,62.64
2018-03-26T07:01:47.921Z,63.34
2018-03-26T07:04:16.342Z,63.96
2018-03-26T07:06:44.750Z,62.72
2018-03-26T07:09:13.288Z,62.93
2018-03-26T07:11:41.683Z,62.54
2018-03-26T07:14:10.093Z,62.39
2018-03-26T07:16:38.473Z,61.44
2018-03-26T07:19:06.930Z,62.38
2018-03-26T07:21:35.325Z,62.63
2018-03-26T07:24:03.755Z,61.62
2018-03-26T07:26:32.211Z,62.87
2018-03-26T07:29:00.585Z,62.68
2018-03-26T07:31:28.986Z,62.98
2018-03-26T07:33:57.405Z,62.29
2018-03-26T07:36:25.777Z,61.86
2018-03-26T07:38:54.184Z,61.17
2018-03-26T07:41:22.620Z,62.38
2018-03-26T07:43:51.133Z,61.29
2018-03-26T07:46:19.551Z,59.52
2018-03-26T07:48:47.936Z,59.46
2018-03-26T07:51:16.366Z,59.58
2018-03-26T07:53:44.803Z,58.61
2018-03-26T07:56:13.190Z,58.12
2018-03-26T07:58:41.609Z,58.04
2018-03-26T08:01:10.077Z,57.70
2018-03-26T08:03:38.486Z,58.76
2018-03-26T08:06:06.942Z,57.13
2018-03-26T08:08:35.397Z,56.62
2018-03-26T08:11:03.773Z,56.71
2018-03-26T08:13:32.498Z,56.84
2018-03-26T08:16:00.888Z,57.07
2018-03-26T08:18:29.268Z,58.31
2018-03-26T08:20:57.752Z,57.66
2018-03-26T08:23:26.144Z,56.12
2018-03-26T08:25:54.533Z,55.97
2018-03-26T08:28:23.226Z,55.57
2018-03-26T08:30:51.636Z,56.26
2018-03-26T08:33:20.053Z,57.52
2018-03-26T08:35:48.486Z,57.02
2018-03-26T08:38:16.930Z,56.92
2018-03-26T08:40:45.320Z,55.64
2018-03-26T08:43:13.905Z,57.10
2018-03-26T08:45:42.302Z,57.37
2018-03-26T08:48:10.726Z,55.23
2018-03-26T08:50:39.557Z,53.33
2018-03-26T08:53:07.969Z,53.91
2018-03-26T08:55:36.394Z,52.60
2018-03-26T08:58:04.828Z,53.47
2018-03-26T09:00:33.212Z,53.94
2018-03-26T09:03:01.610Z,53.00
2018-03-26T09:05:30.055Z,52.71
2018-03-26T09:07:58.424Z,52.55
2018-03-26T09:10:26.841Z,50.91
2018-03-26T09:12:55.702Z,52.16
2018-03-26T09:15:24.114Z,50.64
2018-03-26T09:17:52.526Z,49.93
2018-03-26T09:20:20.975Z,49.09
2018-03-26T09:22:49.366Z,49.67
2018-03-26T09:25:17.833Z,50.78
2018-03-26T09:27:46.231Z,49.67
2018-03-26T09:30:14.691Z,50.69
2018-03-26T09:32:43.167Z,51.74
2018-03-26T09:35:11.571Z,50.37
2018-03-26T09:37:40.033Z,50.08
2018-03-26T09:40:08.486Z,49.98
2018-03-26T09:42:36.881Z,51.13
2018-03-26T09:45:05.293Z,50.43
2018-03-26T09:47:33.727Z,52.80
2018-03-26T09:50:02.221Z,51.22
2018-03-26T09:52:30.657Z,53.28
2018-03-26T09:54:59.092Z,53.19
2018-03-26T09:57:27.578Z,53.24
2018-03-26T09:59:56.001Z,53.41
2018-03-26T10:02:24.397Z,53.92
2018-03-26T10:04:52.837Z,54.40
2018-03-26T10:07:21.224Z,56.46
2018-03-26T10:09:49.825Z,56.15
2018-03-26T10:12:18.324Z,56.15
2018-03-26T10:14:46.780Z,55.52
2018-03-26T10:17:15.224Z,55.42
2018-03-26T10:19:43.635Z,57.37
2018-03-26T10:22:11.998Z,57.17
2018-03-26T10:24:40.434Z,56.87
2018-03-26T10:27:08.832Z,57.15
2018-03-26T10:29:37.284Z,58.15
2018-03-26T10:32:05.716Z,57.91
2018-03-26T10:34:34.112Z,59.07
2018-03-26T10:37:02.531Z,59.29
2018-03-26T10:39:30.965Z,56.89
2018-03-26T10:41:59.358Z,57.64
2018-03-26T10:44:27.813Z,57.38
2018-03-26T10:46:56.217Z,56.09
2018-03-26T10:49:25.584Z,55.29
2018-03-26T10:51:54.030Z,54.45
2018-03-26T10:54:22.490Z,52.60
2018-03-26T10:56:50.893Z,51.85
2018-03-26T10:59:19.360Z,52.31
2018-03-26T11:01:47.778Z,53.19
2018-03-26T11:04:16.257Z,56.08
2018-03-26T11:06:44.891Z,55.71
2018-03-26T11:09:13.322Z,57.00
2018-03-26T11:11:41.793Z,56.51
2018-03-26T11:14:10.236Z,58.72
2018-03-26T11:16:38.650Z,59.46
2018-03-26T11:19:07.052Z,58.94
2018-03-26T11:21:35.478Z,59.73
2018-03-26T11:24:03.994Z,58.58
2018-03-26T11:26:32.450Z,60.14
2018-03-26T11:29:00.929Z,60.69
2018-03-26T11:31:29.393Z,60.97
2018-03-26T11:33:57.860Z,59.32
2018-03-26T11:36:26.349Z,60.93
2018-03-26T11:38:54.881Z,59.91
2018-03-26T11:41:23.336Z,59.53
2018-03-26T11:43:51.855Z,60.79
2018-03-26T11:46:20.353Z,60.50
2018-03-26T11:48:48.911Z,62.51
2018-03-26T11:51:17.382Z,59.70
2018-03-26T11:53:45.852Z,59.92
2018-03-26T11:56:14.306Z,59.94
2018-03-26T11:58:42.748Z,60.72
2018-03-26T12:01:11.237Z,60.65
2018-03-26T12:03:39.748Z,61.70
2018-03-26T12:06:08.230Z,60.58
2018-03-26T12:08:36.662Z,62.34
2018-03-26T12:11:05.187Z,61.04
2018-03-26T12:13:33.709Z,61.09
2018-03-26T12:16:02.173Z,60.09
2018-03-26T12:18:30.592Z,61.49
2018-03-26T12:21:01.773Z,60.18
2018-03-26T12:23:42.116Z,59.26
2018-03-26T12:26:10.635Z,61.47
2018-03-26T12:28:50.922Z,60.18
2018-03-26T12:31:19.372Z,59.67
2018-03-26T12:33:59.684Z,60.70
2018-03-26T12:36:28.210Z,61.14
2018-03-26T12:38:56.661Z,60.42
2018-03-26T12:41:25.099Z,61.46
2018-03-26T12:43:53.576Z,60.84
2018-03-26T12:46:33.807Z,62.12
2018-03-26T12:49:02.288Z,63.95
2018-03-26T12:51:42.598Z,65.75
2018-03-26T12:54:11.094Z,65.63
2018-03-26T12:56:39.524Z,65.30
2018-03-26T12:59:08.025Z,66.66
2018-03-26T13:01:48.360Z,69.31
2018-03-26T13:04:16.816Z,65.45
2018-03-26T13:06:45.336Z,67.65
2018-03-26T13:09:13.793Z,66.13
2018-03-26T13:11:42.249Z,67.85
2018-03-26T13:14:10.676Z,67.20
2018-03-26T13:16:39.156Z,66.86
2018-03-26T13:19:07.599Z,67.41
2018-03-26T13:21:36.030Z,68.06
2018-03-26T13:24:04.478Z,69.45
2018-03-26T13:26:33.008Z,68.50
2018-03-26T13:29:01.425Z,67.66
2018-03-26T13:31:29.898Z,67.90
2018-03-26T13:33:58.368Z,68.35
2018-03-26T13:36:26.838Z,67.19
2018-03-26T13:38:55.292Z,67.69
2018-03-26T13:41:23.720Z,68.65
2018-03-26T13:43:52.199Z,68.05
2018-03-26T13:46:20.694Z,68.09
2018-03-26T13:48:49.263Z,67.50
2018-03-26T13:51:17.739Z,65.31
2018-03-26T13:53:46.233Z,66.10
2018-03-26T13:56:14.714Z,65.94
2018-03-26T13:58:43.186Z,63.75
2018-03-26T14:01:11.657Z,63.10
2018-03-26T14:03:40.140Z,63.34
2018-03-26T14:06:08.578Z,61.15
2018-03-26T14:08:48.925Z,60.70
2018-03-26T14:11:29.352Z,62.14
2018-03-26T14:14:09.558Z,62.33
2018-03-26T14:16:50.063Z,62.22
2018-03-26T14:19:18.516Z,61.77
2018-03-26T14:21:47.010Z,62.58
2018-03-26T14:24:15.449Z,61.92
2018-03-26T14:26:44.185Z,63.06
2018-03-26T14:29:12.678Z,62.11
2018-03-26T14:31:41.150Z,60.74
2018-03-26T14:34:09.640Z,60.87
2018-03-26T14:36:38.199Z,62.52
2018-03-26T14:39:06.675Z,62.72
2018-03-26T14:41:35.180Z,62.26
2018-03-26T14:44:03.708Z,62.71
2018-03-26T14:46:32.226Z,61.12
2018-03-26T14:49:00.669Z,61.67
2018-03-26T14:51:29.149Z,60.91
2018-03-26T14:53:57.629Z,61.06
2018-03-26T14:56:26.062Z,62.62
2018-03-26T14:58:54.555Z,61.54
2018-03-26T15:01:22.983Z,62.45
2018-03-26T15:03:57.205Z,62.39
2018-03-26T15:06:25.682Z,62.46
2018-03-26T15:08:54.175Z,62.88
2018-03-26T15:11:22.633Z,64.45
2018-03-26T15:13:51.119Z,65.39
2018-03-26T15:16:19.588Z,66.22
2018-03-26T15:18:48.095Z,66.35
2018-03-26T15:21:16.598Z,68.34
2018-03-26T15:23:45.079Z,71.59
2018-03-26T15:26:13.578Z,74.42
2018-03-26T15:28:42.041Z,73.94
2018-03-26T15:31:10.541Z,73.78
2018-03-26T15:33:39.028Z,77.17
2018-03-26T15:36:07.511Z,76.31
2018-03-26T15:38:36.057Z,75.09
2018-03-26T15:41:04.571Z,76.80
2018-03-26T15:43:33.026Z,77.60
2018-03-26T15:46:01.467Z,76.47
2018-03-26T15:48:30.563Z,75.85
2018-03-26T15:50:59.459Z,76.58
2018-03-26T15:53:28.257Z,77.01
2018-03-26T15:55:57.138Z,76.71
2018-03-26T15:58:25.744Z,76.83
2018-03-26T16:00:54.368Z,77.78
2018-03-26T16:03:37.458Z,78.54
2018-03-26T16:06:05.965Z,79.07
2018-03-26T16:08:34.456Z,78.65
2018-03-26T16:11:02.990Z,78.83
2018-03-26T16:13:31.432Z,78.94
2018-03-26T16:15:59.919Z,79.02
2018-03-26T16:18:28.394Z,79.02
2018-03-26T16:20:56.900Z,79.10
2018-03-26T16:23:25.352Z,79.05
2018-03-26T16:25:53.849Z,79.95
2018-03-26T16:28:22.356Z,80.39
2018-03-26T16:30:50.869Z,80.48
2018-03-26T16:33:19.485Z,80.27
2018-03-26T16:35:47.969Z,80.05
2018-03-26T16:38:16.458Z,80.46
2018-03-26T16:40:45.157Z,80.62
2018-03-26T16:43:15.534Z,81.38
2018-03-26T16:45:49.224Z,81.34
2018-03-26T16:48:18.248Z,81.05
2018-03-26T16:50:47.624Z,80.99
2018-03-26T16:53:16.944Z,80.88
2018-03-26T16:55:45.982Z,81.03
2018-03-26T16:58:16.997Z,81.37
2018-03-26T17:00:46.653Z,80.95
2018-03-26T17:03:15.980Z,81.04
2018-03-26T17:05:44.661Z,81.22
2018-03-26T17:08:13.111Z,80.77
2018-03-26T17:10:42.597Z,80.96
2018-03-26T17:13:11.357Z,80.81
2018-03-26T17:15:40.151Z,80.99
2018-03-26T17:18:08.850Z,81.15
2018-03-26T17:20:37.430Z,80.96
2018-03-26T17:23:05.965Z,80.76
2018-03-26T17:25:34.378Z,80.86
2018-03-26T17:28:02.845Z,80.96
2018-03-26T17:30:31.267Z,81.06
2018-03-26T17:33:00.067Z,80.48
2018-03-26T17:35:28.576Z,80.95
2018-03-26T17:37:57.028Z,81.59
2018-03-26T17:40:25.521Z,80.77
2018-03-26T17:42:54.065Z,80.49
2018-03-26T17:45:22.520Z,80.08
2018-03-26T17:47:51.042Z,80.73
2018-03-26T17:50:19.550Z,81.11
2018-03-26T17:52:47.998Z,80.89
2018-03-26T17:55:16.533Z,80.62
2018-03-26T17:57:44.975Z,80.42
2018-03-26T18:00:13.437Z,80.47
2018-03-26T18:02:41.957Z,80.13
2018-03-26T18:05:10.487Z,80.27
2018-03-26T18:07:38.983Z,80.02
2018-03-26T18:10:07.560Z,79.79
2018-03-26T18:12:36.037Z,80.33
2018-03-26T18:15:04.555Z,80.23
2018-03-26T18:17:33.063Z,80.07
2018-03-26T18:20:01.647Z,80.37
2018-03-26T18:22:30.169Z,81.41
2018-03-26T18:24:58.620Z,81.14
2018-03-26T18:27:27.092Z,80.35
2018-03-26T18:29:55.548Z,80.34
2018-03-26T18:32:24.017Z,80.49
2018-03-26T18:34:52.477Z,80.98
2018-03-26T18:37:20.945Z,80.96
2018-03-26T18:39:49.400Z,80.59
2018-03-26T18:42:17.829Z,81.01
2018-03-26T18:44:46.292Z,80.44
2018-03-26T18:47:14.797Z,80.45
2018-03-26T18:49:43.252Z,79.82
2018-03-26T18:52:11.725Z,80.25
2018-03-26T18:54:40.193Z,80.94
2018-03-26T18:57:08.733Z,80.61
2018-03-26T18:59:37.209Z,80.56
2018-03-26T19:02:05.674Z,81.72
2018-03-26T19:04:34.124Z,82.91
2018-03-26T19:07:02.583Z,82.45
2018-03-26T19:09:31.061Z,81.28
2018-03-26T19:11:59.550Z,81.39
2018-03-26T19:14:28.028Z,80.46
2018-03-26T19:16:56.456Z,80.97
2018-03-26T19:19:24.895Z,80.53
2018-03-26T19:21:53.372Z,80.49
2018-03-26T19:24:21.803Z,80.39
2018-03-26T19:26:50.242Z,80.53
2018-03-26T19:29:18.735Z,81.59
2018-03-26T19:31:47.184Z,81.53
2018-03-26T19:34:16.826Z,81.24
2018-03-26T19:36:45.438Z,81.98
2018-03-26T19:39:13.976Z,82.14
2018-03-26T19:41:42.413Z,83.26
2018-03-26T19:44:10.860Z,81.84
2018-03-26T19:46:39.345Z,81.37
2018-03-26T19:49:07.797Z,82.61
2018-03-26T19:51:36.270Z,82.57
2018-03-26T19:54:04.970Z,82.35
2018-03-26T19:56:33.549Z,82.99
2018-03-26T19:59:02.074Z,81.52
2018-03-26T20:01:30.519Z,81.20
2018-03-26T20:03:58.978Z,81.66
2018-03-26T20:06:27.457Z,83.11
2018-03-26T20:08:55.889Z,84.16
2018-03-26T20:11:24.321Z,84.58
2018-03-26T20:13:52.786Z,85.00
2018-03-26T20:16:21.265Z,84.75
2018-03-26T20:18:49.728Z,85.05
2018-03-26T20:21:18.166Z,85.35
2018-03-26T20:23:46.644Z,84.92
2018-03-26T20:26:15.067Z,84.31
2018-03-26T20:28:43.528Z,84.02
2018-03-26T20:31:11.989Z,84.18
2018-03-26T20:33:40.460Z,84.10
2018-03-26T20:36:08.979Z,83.30
2018-03-26T20:38:37.456Z,82.46
2018-03-26T20:41:05.914Z,82.51
2018-03-26T20:43:34.373Z,82.35
2018-03-26T20:46:02.952Z,82.43
2018-03-26T20:48:31.436Z,81.43
2018-03-26T20:50:59.877Z,81.09
2018-03-26T20:53:28.374Z,82.19
2018-03-26T20:55:56.815Z,81.36
2018-03-26T20:58:25.322Z,80.80
2018-03-26T21:00:53.806Z,80.68
2018-03-26T21:03:22.245Z,80.00
2018-03-26T21:05:50.901Z,80.59
2018-03-26T21:08:19.384Z,80.74
2018-03-26T21:10:47.822Z,80.56
2018-03-26T21:13:16.289Z,80.53
2018-03-26T21:15:44.750Z,80.81
2018-03-26T21:18:13.180Z,80.87
2018-03-26T21:20:41.697Z,81.35
2018-03-26T21:23:10.160Z,81.19
2018-03-26T21:25:38.657Z,81.11
2018-03-26T21:28:07.082Z,81.24
2018-03-26T21:30:35.596Z,81.07
2018-03-26T21:33:04.079Z,81.99
2018-03-26T21:35:32.589Z,82.63
2018-03-26T21:38:01.049Z,82.13
2018-03-26T21:40:29.537Z,82.42
2018-03-26T21:42:58.049Z,83.15
2018-03-26T21:45:26.541Z,83.34
2018-03-26T21:47:54.989Z,82.05
2018-03-26T21:50:23.441Z,82.78
2018-03-26T21:52:51.937Z,81.87
2018-03-26T21:55:20.443Z,81.37
2018-03-26T21:57:48.940Z,80.99
2018-03-26T22:00:21.075Z,81.51
2018-03-26T22:02:49.588Z,81.13
2018-03-26T22:05:18.024Z,80.45
2018-03-26T22:07:46.517Z,80.98
2018-03-26T22:10:14.916Z,81.08
2018-03-26T22:12:43.439Z,81.07
2018-03-26T22:15:11.900Z,81.35
2018-03-26T22:17:40.433Z,81.04
2018-03-26T22:20:08.996Z,81.32
2018-03-26T22:22:37.403Z,81.22
2018-03-26T22:25:05.882Z,80.92
2018-03-26T22:27:34.340Z,82.06
2018-03-26T22:30:02.870Z,82.43
2018-03-26T22:32:31.338Z,82.50
2018-03-26T22:34:59.812Z,83.12
2018-03-26T22:37:28.310Z,83.38
2018-03-26T22:39:57.104Z,83.25
2018-03-26T22:42:25.611Z,83.61
2018-03-26T22:44:54.069Z,83.89
2018-03-26T22:47:22.537Z,83.84
2018-03-26T22:49:51.036Z,84.16
2018-03-26T22:52:19.512Z,83.69
2018-03-26T22:54:47.950Z,84.40
2018-03-26T22:57:16.439Z,83.77
2018-03-26T22:59:44.887Z,83.54
2018-03-26T23:02:13.544Z,82.72
2018-03-26T23:04:42.194Z,83.24
2018-03-26T23:07:10.686Z,83.62
2018-03-26T23:09:39.114Z,83.26
2018-03-26T23:12:07.620Z,82.99
2018-03-26T23:14:36.094Z,83.17
2018-03-26T23:17:04.562Z,83.70
2018-03-26T23:19:33.048Z,83.45
2018-03-26T23:24:36.302Z,83.44
2018-03-26T23:27:04.785Z,83.50
2018-03-26T23:29:33.260Z,83.54
2018-03-26T23:32:01.660Z,83.99
2018-03-26T23:34:30.077Z,84.12
2018-03-26T23:36:58.542Z,84.44
2018-03-26T23:39:26.948Z,84.22
2018-03-26T23:41:55.455Z,83.59
2018-03-26T23:44:24.057Z,83.45
2018-03-26T23:46:52.481Z,82.98
2018-03-26T23:49:20.987Z,83.87
2018-03-26T23:51:49.477Z,83.58
2018-03-26T23:54:17.924Z,83.01
2018-03-26T23:56:46.401Z,83.22
2018-03-26T23:59:14.892Z,83.21
